sensor_id;sensor_type;location;lat;lon;timestamp;temperature;humidity
37594;DHT22;23441;50.856;6.076;2023-10-19T00:00:37;14.20;99.90
37594;DHT22;23441;50.856;6.076;2023-10-19T00:03:09;14.20;99.90
37594;DHT22;23441;50.856;6.076;2023-10-19T00:05:35;14.30;99.90
37594;DHT22;23441;50.856;6.076;2023-10-19T00:08:06;14.40;99.90
37594;DHT22;23441;50.856;6.076;2023-10-19T00:10:52;14.40;99.90
37594;DHT22;23441;50.856;6.076;2023-10-19T00:13:28;14.50;99.90
37594;DHT22;23441;50.856;6.076;2023-10-19T00:15:55;14.50;99.90
37594;DHT22;23441;50.856;6.076;2023-10-19T00:18:23;14.50;99.90
37594;DHT22;23441;50.856;6.076;2023-10-19T00:20:53;14.60;99.90
37594;DHT22;23441;50.856;6.076;2023-10-19T00:23:30;14.60;99.90
37594;DHT22;23441;50.856;6.076;2023-10-19T00:25:59;14.60;99.90
37594;DHT22;23441;50.856;6.076;2023-10-19T00:28:27;14.60;99.90
37594;DHT22;23441;50.856;6.076;2023-10-19T00:30:54;14.60;99.90
37594;DHT22;23441;50.856;6.076;2023-10-19T00:33:25;14.60;99.90
37594;DHT22;23441;50.856;6.076;2023-10-19T00:35:54;14.60;99.90
37594;DHT22;23441;50.856;6.076;2023-10-19T00:38:24;14.50;99.90
37594;DHT22;23441;50.856;6.076;2023-10-19T00:40:56;14.50;99.90
37594;DHT22;23441;50.856;6.076;2023-10-19T00:43:27;14.50;99.90
37594;DHT22;23441;50.856;6.076;2023-10-19T00:45:54;14.40;99.90
37594;DHT22;23441;50.856;6.076;2023-10-19T00:48:20;14.40;99.90
37594;DHT22;23441;50.856;6.076;2023-10-19T00:50:52;14.40;99.90
37594;DHT22;23441;50.856;6.076;2023-10-19T00:53:21;14.40;99.90
37594;DHT22;23441;50.856;6.076;2023-10-19T00:55:48;14.50;99.90
37594;DHT22;23441;50.856;6.076;2023-10-19T00:58:13;14.60;99.90
37594;DHT22;23441;50.856;6.076;2023-10-19T01:00:44;14.70;99.90
37594;DHT22;23441;50.856;6.076;2023-10-19T01:03:12;14.70;99.90
37594;DHT22;23441;50.856;6.076;2023-10-19T01:05:43;14.80;99.90
37594;DHT22;23441;50.856;6.076;2023-10-19T01:08:13;14.80;99.90
37594;DHT22;23441;50.856;6.076;2023-10-19T01:10:50;14.80;99.90
37594;DHT22;23441;50.856;6.076;2023-10-19T01:13:18;14.80;99.90
37594;DHT22;23441;50.856;6.076;2023-10-19T01:15:52;14.90;99.90
37594;DHT22;23441;50.856;6.076;2023-10-19T01:18:18;14.80;99.90
37594;DHT22;23441;50.856;6.076;2023-10-19T01:20:44;14.80;99.90
37594;DHT22;23441;50.856;6.076;2023-10-19T01:23:16;14.80;99.90
37594;DHT22;23441;50.856;6.076;2023-10-19T01:25:56;14.80;99.90
37594;DHT22;23441;50.856;6.076;2023-10-19T01:31:11;14.80;99.90
37594;DHT22;23441;50.856;6.076;2023-10-19T01:34:00;14.80;99.90
37594;DHT22;23441;50.856;6.076;2023-10-19T01:36:29;14.80;99.90
37594;DHT22;23441;50.856;6.076;2023-10-19T01:38:58;14.80;99.90
37594;DHT22;23441;50.856;6.076;2023-10-19T01:41:27;14.70;99.90
37594;DHT22;23441;50.856;6.076;2023-10-19T01:43:54;14.60;99.90
37594;DHT22;23441;50.856;6.076;2023-10-19T01:46:21;14.50;99.90
37594;DHT22;23441;50.856;6.076;2023-10-19T01:48:48;14.60;99.90
37594;DHT22;23441;50.856;6.076;2023-10-19T01:51:24;14.60;99.90
37594;DHT22;23441;50.856;6.076;2023-10-19T01:53:52;14.60;99.90
37594;DHT22;23441;50.856;6.076;2023-10-19T01:56:20;14.70;99.90
37594;DHT22;23441;50.856;6.076;2023-10-19T01:58:48;14.70;99.90
37594;DHT22;23441;50.856;6.076;2023-10-19T02:01:15;14.80;99.90
37594;DHT22;23441;50.856;6.076;2023-10-19T02:04:04;14.80;99.90
37594;DHT22;23441;50.856;6.076;2023-10-19T02:06:32;14.80;99.90
37594;DHT22;23441;50.856;6.076;2023-10-19T02:09:11;14.80;99.90
37594;DHT22;23441;50.856;6.076;2023-10-19T02:11:54;14.90;99.90
37594;DHT22;23441;50.856;6.076;2023-10-19T02:14:25;14.90;99.90
37594;DHT22;23441;50.856;6.076;2023-10-19T02:16:55;14.90;99.90
37594;DHT22;23441;50.856;6.076;2023-10-19T02:19:25;15.00;99.90
37594;DHT22;23441;50.856;6.076;2023-10-19T02:22:00;15.00;99.90
37594;DHT22;23441;50.856;6.076;2023-10-19T02:24:29;14.90;99.90
37594;DHT22;23441;50.856;6.076;2023-10-19T02:26:56;14.90;99.90
37594;DHT22;23441;50.856;6.076;2023-10-19T02:29:22;14.90;99.90
37594;DHT22;23441;50.856;6.076;2023-10-19T02:31:48;14.80;99.90
37594;DHT22;23441;50.856;6.076;2023-10-19T02:34:15;14.80;99.90
37594;DHT22;23441;50.856;6.076;2023-10-19T02:36:42;14.80;99.90
37594;DHT22;23441;50.856;6.076;2023-10-19T02:39:10;14.70;99.90
37594;DHT22;23441;50.856;6.076;2023-10-19T02:41:40;14.70;99.90
37594;DHT22;23441;50.856;6.076;2023-10-19T02:44:14;14.70;99.90
37594;DHT22;23441;50.856;6.076;2023-10-19T02:46:43;14.70;99.90
37594;DHT22;23441;50.856;6.076;2023-10-19T02:49:10;14.70;99.90
37594;DHT22;23441;50.856;6.076;2023-10-19T02:51:41;14.70;99.90
37594;DHT22;23441;50.856;6.076;2023-10-19T02:54:08;14.70;99.90
37594;DHT22;23441;50.856;6.076;2023-10-19T02:56:35;14.70;99.90
37594;DHT22;23441;50.856;6.076;2023-10-19T02:59:02;14.70;99.90
37594;DHT22;23441;50.856;6.076;2023-10-19T03:01:31;14.70;99.90
37594;DHT22;23441;50.856;6.076;2023-10-19T03:03:59;14.70;99.90
37594;DHT22;23441;50.856;6.076;2023-10-19T03:06:31;14.70;99.90
37594;DHT22;23441;50.856;6.076;2023-10-19T03:08:58;14.70;99.90
37594;DHT22;23441;50.856;6.076;2023-10-19T03:11:27;14.70;99.90
37594;DHT22;23441;50.856;6.076;2023-10-19T03:13:55;14.70;99.90
37594;DHT22;23441;50.856;6.076;2023-10-19T03:16:22;14.70;99.90
37594;DHT22;23441;50.856;6.076;2023-10-19T03:18:49;14.80;99.90
37594;DHT22;23441;50.856;6.076;2023-10-19T03:21:16;14.70;99.90
37594;DHT22;23441;50.856;6.076;2023-10-19T03:23:44;14.80;99.90
37594;DHT22;23441;50.856;6.076;2023-10-19T03:26:09;14.80;99.90
37594;DHT22;23441;50.856;6.076;2023-10-19T03:28:59;14.80;99.90
37594;DHT22;23441;50.856;6.076;2023-10-19T03:31:32;14.70;99.90
37594;DHT22;23441;50.856;6.076;2023-10-19T03:33:58;14.70;99.90
37594;DHT22;23441;50.856;6.076;2023-10-19T03:36:25;14.70;99.90
37594;DHT22;23441;50.856;6.076;2023-10-19T03:38:52;14.60;99.90
37594;DHT22;23441;50.856;6.076;2023-10-19T03:41:19;14.60;99.90
37594;DHT22;23441;50.856;6.076;2023-10-19T03:43:53;14.50;99.90
37594;DHT22;23441;50.856;6.076;2023-10-19T03:46:20;14.60;99.90
37594;DHT22;23441;50.856;6.076;2023-10-19T03:48:57;14.50;99.90
37594;DHT22;23441;50.856;6.076;2023-10-19T03:51:30;14.50;99.90
37594;DHT22;23441;50.856;6.076;2023-10-19T03:54:06;14.50;99.90
37594;DHT22;23441;50.856;6.076;2023-10-19T03:56:48;14.50;99.90
37594;DHT22;23441;50.856;6.076;2023-10-19T03:59:16;14.40;99.90
37594;DHT22;23441;50.856;6.076;2023-10-19T04:01:42;14.50;99.90
37594;DHT22;23441;50.856;6.076;2023-10-19T04:04:09;14.50;99.90
37594;DHT22;23441;50.856;6.076;2023-10-19T04:06:35;14.50;99.90
37594;DHT22;23441;50.856;6.076;2023-10-19T04:09:02;14.50;99.90
37594;DHT22;23441;50.856;6.076;2023-10-19T04:11:31;14.50;99.90
37594;DHT22;23441;50.856;6.076;2023-10-19T04:14:16;14.40;99.90
37594;DHT22;23441;50.856;6.076;2023-10-19T04:16:43;14.50;99.90
37594;DHT22;23441;50.856;6.076;2023-10-19T04:19:14;14.40;99.90
37594;DHT22;23441;50.856;6.076;2023-10-19T04:21:40;14.40;99.90
37594;DHT22;23441;50.856;6.076;2023-10-19T04:24:09;14.40;99.90
37594;DHT22;23441;50.856;6.076;2023-10-19T04:26:36;14.50;99.90
37594;DHT22;23441;50.856;6.076;2023-10-19T04:29:06;14.60;99.90
37594;DHT22;23441;50.856;6.076;2023-10-19T04:31:42;14.50;99.90
37594;DHT22;23441;50.856;6.076;2023-10-19T04:34:20;14.60;99.90
37594;DHT22;23441;50.856;6.076;2023-10-19T04:36:50;14.60;99.90
37594;DHT22;23441;50.856;6.076;2023-10-19T04:39:16;14.60;99.90
37594;DHT22;23441;50.856;6.076;2023-10-19T04:41:45;14.60;99.90
37594;DHT22;23441;50.856;6.076;2023-10-19T04:44:11;14.60;99.90
37594;DHT22;23441;50.856;6.076;2023-10-19T04:46:36;14.70;99.90
37594;DHT22;23441;50.856;6.076;2023-10-19T04:49:02;14.70;99.90
37594;DHT22;23441;50.856;6.076;2023-10-19T04:51:31;14.70;99.90
37594;DHT22;23441;50.856;6.076;2023-10-19T04:53:56;14.60;99.90
37594;DHT22;23441;50.856;6.076;2023-10-19T04:56:22;14.60;99.90
37594;DHT22;23441;50.856;6.076;2023-10-19T04:58:48;14.60;99.90
37594;DHT22;23441;50.856;6.076;2023-10-19T05:01:14;14.50;99.90
37594;DHT22;23441;50.856;6.076;2023-10-19T05:03:40;14.50;99.90
37594;DHT22;23441;50.856;6.076;2023-10-19T05:06:06;14.50;99.90
37594;DHT22;23441;50.856;6.076;2023-10-19T05:08:32;14.40;99.90
37594;DHT22;23441;50.856;6.076;2023-10-19T05:10:58;14.40;99.90
37594;DHT22;23441;50.856;6.076;2023-10-19T05:13:27;14.30;99.90
37594;DHT22;23441;50.856;6.076;2023-10-19T05:15:56;14.30;99.90
37594;DHT22;23441;50.856;6.076;2023-10-19T05:18:24;14.30;99.90
37594;DHT22;23441;50.856;6.076;2023-10-19T05:20:50;14.30;99.90
37594;DHT22;23441;50.856;6.076;2023-10-19T05:23:22;14.30;99.90
37594;DHT22;23441;50.856;6.076;2023-10-19T05:25:47;14.20;99.90
37594;DHT22;23441;50.856;6.076;2023-10-19T05:28:13;14.20;99.90
37594;DHT22;23441;50.856;6.076;2023-10-19T05:30:39;14.20;99.90
37594;DHT22;23441;50.856;6.076;2023-10-19T05:33:05;14.30;99.90
37594;DHT22;23441;50.856;6.076;2023-10-19T05:35:32;14.20;99.90
37594;DHT22;23441;50.856;6.076;2023-10-19T05:38:00;14.20;99.90
37594;DHT22;23441;50.856;6.076;2023-10-19T05:40:27;14.20;99.90
37594;DHT22;23441;50.856;6.076;2023-10-19T05:42:57;14.20;99.90
37594;DHT22;23441;50.856;6.076;2023-10-19T05:45:27;14.10;99.90
37594;DHT22;23441;50.856;6.076;2023-10-19T05:47:55;14.10;99.90
37594;DHT22;23441;50.856;6.076;2023-10-19T05:50:21;14.10;99.90
37594;DHT22;23441;50.856;6.076;2023-10-19T05:52:46;14.10;99.90
37594;DHT22;23441;50.856;6.076;2023-10-19T05:55:14;14.00;99.90
37594;DHT22;23441;50.856;6.076;2023-10-19T05:57:40;14.00;99.90
37594;DHT22;23441;50.856;6.076;2023-10-19T06:00:10;13.90;99.90
37594;DHT22;23441;50.856;6.076;2023-10-19T06:02:42;13.90;99.90
37594;DHT22;23441;50.856;6.076;2023-10-19T06:05:09;13.90;99.90
37594;DHT22;23441;50.856;6.076;2023-10-19T06:07:35;13.90;99.90
37594;DHT22;23441;50.856;6.076;2023-10-19T06:10:01;13.80;99.90
37594;DHT22;23441;50.856;6.076;2023-10-19T06:12:31;13.90;99.90
37594;DHT22;23441;50.856;6.076;2023-10-19T06:14:57;14.00;99.90
37594;DHT22;23441;50.856;6.076;2023-10-19T06:17:22;14.00;99.90
37594;DHT22;23441;50.856;6.076;2023-10-19T06:19:49;14.00;99.90
37594;DHT22;23441;50.856;6.076;2023-10-19T06:22:14;13.90;99.90
37594;DHT22;23441;50.856;6.076;2023-10-19T06:24:42;13.90;99.90
37594;DHT22;23441;50.856;6.076;2023-10-19T06:27:10;13.80;99.90
37594;DHT22;23441;50.856;6.076;2023-10-19T06:29:35;13.80;99.90
37594;DHT22;23441;50.856;6.076;2023-10-19T06:32:01;13.90;99.90
37594;DHT22;23441;50.856;6.076;2023-10-19T06:34:27;13.80;99.90
37594;DHT22;23441;50.856;6.076;2023-10-19T06:36:53;13.90;99.90
37594;DHT22;23441;50.856;6.076;2023-10-19T06:39:20;13.90;99.90
37594;DHT22;23441;50.856;6.076;2023-10-19T06:41:47;13.80;99.90
37594;DHT22;23441;50.856;6.076;2023-10-19T06:44:13;13.80;99.90
37594;DHT22;23441;50.856;6.076;2023-10-19T06:46:39;13.80;99.90
37594;DHT22;23441;50.856;6.076;2023-10-19T06:49:05;13.70;99.90
37594;DHT22;23441;50.856;6.076;2023-10-19T06:51:31;13.70;99.90
37594;DHT22;23441;50.856;6.076;2023-10-19T06:53:58;13.70;99.90
37594;DHT22;23441;50.856;6.076;2023-10-19T06:56:24;13.70;99.90
37594;DHT22;23441;50.856;6.076;2023-10-19T06:58:50;13.70;99.90
37594;DHT22;23441;50.856;6.076;2023-10-19T07:01:15;13.60;99.90
37594;DHT22;23441;50.856;6.076;2023-10-19T07:03:43;13.70;99.90
37594;DHT22;23441;50.856;6.076;2023-10-19T07:06:09;13.70;99.90
37594;DHT22;23441;50.856;6.076;2023-10-19T07:08:39;13.80;99.90
37594;DHT22;23441;50.856;6.076;2023-10-19T07:11:06;13.90;99.90
37594;DHT22;23441;50.856;6.076;2023-10-19T07:13:33;13.90;99.90
37594;DHT22;23441;50.856;6.076;2023-10-19T07:15:59;14.00;99.90
37594;DHT22;23441;50.856;6.076;2023-10-19T07:18:25;14.10;99.90
37594;DHT22;23441;50.856;6.076;2023-10-19T07:20:51;14.20;99.90
37594;DHT22;23441;50.856;6.076;2023-10-19T07:23:18;14.20;99.90
37594;DHT22;23441;50.856;6.076;2023-10-19T07:25:48;14.20;99.90
37594;DHT22;23441;50.856;6.076;2023-10-19T07:28:18;14.40;99.90
37594;DHT22;23441;50.856;6.076;2023-10-19T07:30:45;14.50;99.90
37594;DHT22;23441;50.856;6.076;2023-10-19T07:33:12;14.50;99.90
37594;DHT22;23441;50.856;6.076;2023-10-19T07:35:49;14.60;99.90
37594;DHT22;23441;50.856;6.076;2023-10-19T07:38:22;14.60;99.90
37594;DHT22;23441;50.856;6.076;2023-10-19T07:40:48;14.70;99.90
37594;DHT22;23441;50.856;6.076;2023-10-19T07:43:13;14.80;99.90
37594;DHT22;23441;50.856;6.076;2023-10-19T07:45:39;14.80;99.90
37594;DHT22;23441;50.856;6.076;2023-10-19T07:48:06;14.90;99.90
37594;DHT22;23441;50.856;6.076;2023-10-19T07:50:33;14.90;99.90
37594;DHT22;23441;50.856;6.076;2023-10-19T07:52:59;14.90;99.90
37594;DHT22;23441;50.856;6.076;2023-10-19T07:55:24;15.00;99.90
37594;DHT22;23441;50.856;6.076;2023-10-19T07:57:51;15.00;99.90
37594;DHT22;23441;50.856;6.076;2023-10-19T08:00:19;15.10;99.90
37594;DHT22;23441;50.856;6.076;2023-10-19T08:02:45;15.20;99.90
37594;DHT22;23441;50.856;6.076;2023-10-19T08:05:14;15.40;99.90
37594;DHT22;23441;50.856;6.076;2023-10-19T08:07:40;15.50;99.90
37594;DHT22;23441;50.856;6.076;2023-10-19T08:10:12;15.60;99.90
37594;DHT22;23441;50.856;6.076;2023-10-19T08:12:39;15.60;99.90
37594;DHT22;23441;50.856;6.076;2023-10-19T08:15:10;15.60;99.90
37594;DHT22;23441;50.856;6.076;2023-10-19T08:17:40;15.70;99.90
37594;DHT22;23441;50.856;6.076;2023-10-19T08:20:11;15.70;99.90
37594;DHT22;23441;50.856;6.076;2023-10-19T08:22:58;15.70;99.90
37594;DHT22;23441;50.856;6.076;2023-10-19T08:25:24;15.60;99.90
37594;DHT22;23441;50.856;6.076;2023-10-19T08:27:52;15.60;99.90
37594;DHT22;23441;50.856;6.076;2023-10-19T08:30:22;15.50;99.90
37594;DHT22;23441;50.856;6.076;2023-10-19T08:32:47;15.50;99.90
37594;DHT22;23441;50.856;6.076;2023-10-19T08:35:18;15.70;99.90
37594;DHT22;23441;50.856;6.076;2023-10-19T08:37:46;15.70;99.90
37594;DHT22;23441;50.856;6.076;2023-10-19T08:40:12;15.70;99.90
37594;DHT22;23441;50.856;6.076;2023-10-19T08:42:41;15.80;99.90
37594;DHT22;23441;50.856;6.076;2023-10-19T08:45:08;15.80;99.90
37594;DHT22;23441;50.856;6.076;2023-10-19T08:47:37;15.90;99.90
37594;DHT22;23441;50.856;6.076;2023-10-19T08:50:04;16.00;99.90
37594;DHT22;23441;50.856;6.076;2023-10-19T08:52:30;16.10;99.90
37594;DHT22;23441;50.856;6.076;2023-10-19T08:54:57;16.20;99.90
37594;DHT22;23441;50.856;6.076;2023-10-19T08:57:23;16.30;99.90
37594;DHT22;23441;50.856;6.076;2023-10-19T08:59:49;16.30;99.90
37594;DHT22;23441;50.856;6.076;2023-10-19T09:02:15;16.40;99.90
37594;DHT22;23441;50.856;6.076;2023-10-19T09:04:47;16.40;99.90
37594;DHT22;23441;50.856;6.076;2023-10-19T09:07:13;16.50;99.90
37594;DHT22;23441;50.856;6.076;2023-10-19T09:09:41;16.50;99.90
37594;DHT22;23441;50.856;6.076;2023-10-19T09:12:07;16.60;99.90
37594;DHT22;23441;50.856;6.076;2023-10-19T09:14:34;16.60;99.90
37594;DHT22;23441;50.856;6.076;2023-10-19T09:17:07;16.80;99.90
37594;DHT22;23441;50.856;6.076;2023-10-19T09:19:44;16.70;99.90
37594;DHT22;23441;50.856;6.076;2023-10-19T09:22:13;16.70;99.90
37594;DHT22;23441;50.856;6.076;2023-10-19T09:24:51;16.70;99.90
37594;DHT22;23441;50.856;6.076;2023-10-19T09:27:19;16.70;99.90
37594;DHT22;23441;50.856;6.076;2023-10-19T09:29:46;16.80;99.90
37594;DHT22;23441;50.856;6.076;2023-10-19T09:32:12;16.90;99.90
37594;DHT22;23441;50.856;6.076;2023-10-19T09:34:41;17.00;99.90
37594;DHT22;23441;50.856;6.076;2023-10-19T09:37:10;17.10;99.90
37594;DHT22;23441;50.856;6.076;2023-10-19T09:39:36;17.20;99.90
37594;DHT22;23441;50.856;6.076;2023-10-19T09:42:09;17.30;99.90
37594;DHT22;23441;50.856;6.076;2023-10-19T09:44:43;17.40;99.90
37594;DHT22;23441;50.856;6.076;2023-10-19T09:47:19;17.50;99.90
37594;DHT22;23441;50.856;6.076;2023-10-19T09:49:46;17.70;99.90
37594;DHT22;23441;50.856;6.076;2023-10-19T09:52:16;18.00;99.90
37594;DHT22;23441;50.856;6.076;2023-10-19T09:54:52;18.20;99.90
37594;DHT22;23441;50.856;6.076;2023-10-19T09:57:30;18.30;99.90
37594;DHT22;23441;50.856;6.076;2023-10-19T10:00:00;18.50;99.90
37594;DHT22;23441;50.856;6.076;2023-10-19T10:02:35;18.50;99.90
37594;DHT22;23441;50.856;6.076;2023-10-19T10:05:01;18.60;99.90
37594;DHT22;23441;50.856;6.076;2023-10-19T10:07:27;18.60;99.90
37594;DHT22;23441;50.856;6.076;2023-10-19T10:09:54;18.60;99.90
37594;DHT22;23441;50.856;6.076;2023-10-19T10:12:24;18.60;99.90
37594;DHT22;23441;50.856;6.076;2023-10-19T10:15:01;18.50;99.90
37594;DHT22;23441;50.856;6.076;2023-10-19T10:17:27;18.50;99.90
37594;DHT22;23441;50.856;6.076;2023-10-19T10:20:39;18.50;99.90
37594;DHT22;23441;50.856;6.076;2023-10-19T10:22:41;18.50;99.90
37594;DHT22;23441;50.856;6.076;2023-10-19T10:25:30;18.50;99.90
37594;DHT22;23441;50.856;6.076;2023-10-19T10:27:56;18.60;99.90
37594;DHT22;23441;50.856;6.076;2023-10-19T10:30:22;18.70;99.90
37594;DHT22;23441;50.856;6.076;2023-10-19T10:32:51;18.80;99.90
37594;DHT22;23441;50.856;6.076;2023-10-19T10:38:04;18.80;99.90
37594;DHT22;23441;50.856;6.076;2023-10-19T10:43:08;18.90;99.90
37594;DHT22;23441;50.856;6.076;2023-10-19T10:45:34;19.00;99.90
37594;DHT22;23441;50.856;6.076;2023-10-19T10:47:59;19.00;99.90
37594;DHT22;23441;50.856;6.076;2023-10-19T10:50:29;19.10;99.90
37594;DHT22;23441;50.856;6.076;2023-10-19T10:52:55;19.10;99.90
37594;DHT22;23441;50.856;6.076;2023-10-19T10:55:24;19.30;99.90
37594;DHT22;23441;50.856;6.076;2023-10-19T10:57:54;19.30;99.90
37594;DHT22;23441;50.856;6.076;2023-10-19T11:00:20;19.30;99.90
37594;DHT22;23441;50.856;6.076;2023-10-19T11:03:02;19.30;99.90
37594;DHT22;23441;50.856;6.076;2023-10-19T11:05:33;19.30;99.90
37594;DHT22;23441;50.856;6.076;2023-10-19T11:08:10;19.30;99.90
37594;DHT22;23441;50.856;6.076;2023-10-19T11:10:40;19.30;99.90
37594;DHT22;23441;50.856;6.076;2023-10-19T11:13:10;19.30;99.90
37594;DHT22;23441;50.856;6.076;2023-10-19T11:15:47;19.20;99.90
37594;DHT22;23441;50.856;6.076;2023-10-19T11:18:49;19.30;99.90
37594;DHT22;23441;50.856;6.076;2023-10-19T11:21:15;19.20;99.90
37594;DHT22;23441;50.856;6.076;2023-10-19T11:23:47;19.10;99.90
37594;DHT22;23441;50.856;6.076;2023-10-19T11:26:19;19.10;99.90
37594;DHT22;23441;50.856;6.076;2023-10-19T11:28:45;19.00;99.90
37594;DHT22;23441;50.856;6.076;2023-10-19T11:31:18;18.90;99.90
37594;DHT22;23441;50.856;6.076;2023-10-19T11:33:46;19.00;99.90
37594;DHT22;23441;50.856;6.076;2023-10-19T11:36:16;19.00;99.90
37594;DHT22;23441;50.856;6.076;2023-10-19T11:38:43;19.10;99.90
37594;DHT22;23441;50.856;6.076;2023-10-19T11:41:10;19.10;99.90
37594;DHT22;23441;50.856;6.076;2023-10-19T11:43:36;19.10;99.90
37594;DHT22;23441;50.856;6.076;2023-10-19T11:46:03;19.00;99.90
37594;DHT22;23441;50.856;6.076;2023-10-19T11:48:35;19.10;99.90
37594;DHT22;23441;50.856;6.076;2023-10-19T11:51:04;19.10;99.90
37594;DHT22;23441;50.856;6.076;2023-10-19T11:53:34;19.00;99.90
37594;DHT22;23441;50.856;6.076;2023-10-19T11:56:03;18.90;99.90
37594;DHT22;23441;50.856;6.076;2023-10-19T11:58:38;18.90;99.90
37594;DHT22;23441;50.856;6.076;2023-10-19T12:01:07;18.80;99.90
37594;DHT22;23441;50.856;6.076;2023-10-19T12:03:40;18.70;99.90
37594;DHT22;23441;50.856;6.076;2023-10-19T12:06:10;18.70;99.90
37594;DHT22;23441;50.856;6.076;2023-10-19T12:08:36;18.70;99.90
37594;DHT22;23441;50.856;6.076;2023-10-19T12:11:03;18.70;99.90
37594;DHT22;23441;50.856;6.076;2023-10-19T12:13:30;18.50;99.90
37594;DHT22;23441;50.856;6.076;2023-10-19T12:15:57;18.50;99.90
37594;DHT22;23441;50.856;6.076;2023-10-19T12:18:24;18.50;99.90
37594;DHT22;23441;50.856;6.076;2023-10-19T12:20:51;18.40;99.90
37594;DHT22;23441;50.856;6.076;2023-10-19T12:23:22;18.30;99.90
37594;DHT22;23441;50.856;6.076;2023-10-19T12:25:49;18.30;99.90
37594;DHT22;23441;50.856;6.076;2023-10-19T12:28:14;18.30;99.90
37594;DHT22;23441;50.856;6.076;2023-10-19T12:30:41;18.30;99.90
37594;DHT22;23441;50.856;6.076;2023-10-19T12:33:07;18.30;99.90
37594;DHT22;23441;50.856;6.076;2023-10-19T12:35:43;18.10;99.90
37594;DHT22;23441;50.856;6.076;2023-10-19T12:38:26;18.00;99.90
37594;DHT22;23441;50.856;6.076;2023-10-19T12:40:52;17.90;99.90
37594;DHT22;23441;50.856;6.076;2023-10-19T12:43:19;17.80;99.90
37594;DHT22;23441;50.856;6.076;2023-10-19T12:45:47;17.80;99.90
37594;DHT22;23441;50.856;6.076;2023-10-19T12:48:17;17.70;99.90
37594;DHT22;23441;50.856;6.076;2023-10-19T12:50:43;17.50;99.90
37594;DHT22;23441;50.856;6.076;2023-10-19T12:53:09;17.50;99.90
37594;DHT22;23441;50.856;6.076;2023-10-19T12:55:35;17.30;99.90
37594;DHT22;23441;50.856;6.076;2023-10-19T12:58:03;17.10;99.90
37594;DHT22;23441;50.856;6.076;2023-10-19T13:00:33;17.00;99.90
37594;DHT22;23441;50.856;6.076;2023-10-19T13:03:05;16.90;99.90
37594;DHT22;23441;50.856;6.076;2023-10-19T13:05:37;16.80;99.90
37594;DHT22;23441;50.856;6.076;2023-10-19T13:08:07;16.70;99.90
37594;DHT22;23441;50.856;6.076;2023-10-19T13:10:34;16.70;99.90
37594;DHT22;23441;50.856;6.076;2023-10-19T13:13:04;16.80;99.90
37594;DHT22;23441;50.856;6.076;2023-10-19T13:15:32;16.90;99.90
37594;DHT22;23441;50.856;6.076;2023-10-19T13:18:00;16.90;99.90
37594;DHT22;23441;50.856;6.076;2023-10-19T13:20:27;16.90;99.90
37594;DHT22;23441;50.856;6.076;2023-10-19T13:22:53;16.90;99.90
37594;DHT22;23441;50.856;6.076;2023-10-19T13:25:21;16.90;99.90
37594;DHT22;23441;50.856;6.076;2023-10-19T13:28:10;16.90;99.90
37594;DHT22;23441;50.856;6.076;2023-10-19T13:30:40;17.00;99.90
37594;DHT22;23441;50.856;6.076;2023-10-19T13:33:10;17.10;99.90
37594;DHT22;23441;50.856;6.076;2023-10-19T13:35:36;17.10;99.90
37594;DHT22;23441;50.856;6.076;2023-10-19T13:38:04;17.10;99.90
37594;DHT22;23441;50.856;6.076;2023-10-19T13:40:30;17.10;99.90
37594;DHT22;23441;50.856;6.076;2023-10-19T13:42:59;17.20;99.90
37594;DHT22;23441;50.856;6.076;2023-10-19T13:45:25;17.10;99.90
37594;DHT22;23441;50.856;6.076;2023-10-19T13:47:51;17.00;99.90
37594;DHT22;23441;50.856;6.076;2023-10-19T13:50:23;17.10;99.90
37594;DHT22;23441;50.856;6.076;2023-10-19T13:52:53;17.20;99.90
37594;DHT22;23441;50.856;6.076;2023-10-19T13:55:19;17.20;99.90
37594;DHT22;23441;50.856;6.076;2023-10-19T13:57:47;17.30;99.90
37594;DHT22;23441;50.856;6.076;2023-10-19T14:00:14;17.30;99.90
37594;DHT22;23441;50.856;6.076;2023-10-19T14:02:51;17.30;99.90
37594;DHT22;23441;50.856;6.076;2023-10-19T14:05:17;17.40;99.90
37594;DHT22;23441;50.856;6.076;2023-10-19T14:07:44;17.50;99.90
37594;DHT22;23441;50.856;6.076;2023-10-19T14:10:13;17.50;99.90
37594;DHT22;23441;50.856;6.076;2023-10-19T14:12:40;17.40;99.90
37594;DHT22;23441;50.856;6.076;2023-10-19T14:15:13;17.40;99.90
37594;DHT22;23441;50.856;6.076;2023-10-19T14:17:40;17.30;99.90
37594;DHT22;23441;50.856;6.076;2023-10-19T14:20:07;17.20;99.90
37594;DHT22;23441;50.856;6.076;2023-10-19T14:22:41;17.20;99.90
37594;DHT22;23441;50.856;6.076;2023-10-19T14:25:08;17.30;99.90
37594;DHT22;23441;50.856;6.076;2023-10-19T14:27:38;17.30;99.90
37594;DHT22;23441;50.856;6.076;2023-10-19T14:30:05;17.30;99.90
37594;DHT22;23441;50.856;6.076;2023-10-19T14:32:30;17.30;99.90
37594;DHT22;23441;50.856;6.076;2023-10-19T14:34:56;17.20;99.90
37594;DHT22;23441;50.856;6.076;2023-10-19T14:37:22;17.20;99.90
37594;DHT22;23441;50.856;6.076;2023-10-19T14:39:47;17.10;99.90
37594;DHT22;23441;50.856;6.076;2023-10-19T14:42:13;17.20;99.90
37594;DHT22;23441;50.856;6.076;2023-10-19T14:44:38;17.20;99.90
37594;DHT22;23441;50.856;6.076;2023-10-19T14:47:05;17.20;99.90
37594;DHT22;23441;50.856;6.076;2023-10-19T14:49:31;17.30;99.90
37594;DHT22;23441;50.856;6.076;2023-10-19T14:51:58;17.30;99.90
37594;DHT22;23441;50.856;6.076;2023-10-19T14:54:23;17.30;99.90
37594;DHT22;23441;50.856;6.076;2023-10-19T14:56:49;17.30;99.90
37594;DHT22;23441;50.856;6.076;2023-10-19T14:59:15;17.30;99.90
37594;DHT22;23441;50.856;6.076;2023-10-19T15:01:40;17.30;99.90
37594;DHT22;23441;50.856;6.076;2023-10-19T15:04:06;17.30;99.90
37594;DHT22;23441;50.856;6.076;2023-10-19T15:06:32;17.30;99.90
37594;DHT22;23441;50.856;6.076;2023-10-19T15:08:57;17.40;99.90
37594;DHT22;23441;50.856;6.076;2023-10-19T15:11:23;17.40;99.90
37594;DHT22;23441;50.856;6.076;2023-10-19T15:13:50;17.40;99.90
37594;DHT22;23441;50.856;6.076;2023-10-19T15:16:16;17.40;99.90
37594;DHT22;23441;50.856;6.076;2023-10-19T15:18:42;17.30;99.90
37594;DHT22;23441;50.856;6.076;2023-10-19T15:21:11;17.10;99.90
37594;DHT22;23441;50.856;6.076;2023-10-19T15:23:39;17.10;99.90
37594;DHT22;23441;50.856;6.076;2023-10-19T15:26:06;17.00;99.90
37594;DHT22;23441;50.856;6.076;2023-10-19T15:28:32;16.90;99.90
37594;DHT22;23441;50.856;6.076;2023-10-19T15:30:59;16.80;99.90
37594;DHT22;23441;50.856;6.076;2023-10-19T15:33:26;16.70;99.90
37594;DHT22;23441;50.856;6.076;2023-10-19T15:35:57;16.60;99.90
37594;DHT22;23441;50.856;6.076;2023-10-19T15:38:23;16.50;99.90
37594;DHT22;23441;50.856;6.076;2023-10-19T15:40:50;16.40;99.90
37594;DHT22;23441;50.856;6.076;2023-10-19T15:43:15;16.30;99.90
37594;DHT22;23441;50.856;6.076;2023-10-19T15:45:41;16.40;99.90
37594;DHT22;23441;50.856;6.076;2023-10-19T15:48:10;16.30;99.90